Time;durP1;ratioP1;P1;durP2;ratioP2;P2;SDS_P1;SDS_P2;PMS_P1;PMS_P2;Temp;Humidity;BMP_temperature;BMP_pressure;BME280_temperature;BME280_humidity;BME280_pressure;Samples;Min_cycle;Max_cycle;Signal;HPM_P1;HPM_P2
2021/01/25 00:02:03;;;;;;;10.18;6.22;;;0.30;96.00;;;;;;5090721;27;20027;-82
2021/01/25 00:04:28;;;;;;;13.27;6.35;;;0.40;96.20;;;;;;5107530;28;20068;-81
2021/01/25 00:06:54;;;;;;;10.98;6.18;;;0.40;95.90;;;;;;5108035;28;20042;-81
2021/01/25 00:09:19;;;;;;;9.73;5.75;;;0.40;95.50;;;;;;5090799;28;20030;-81
2021/01/25 00:11:45;;;;;;;11.13;5.40;;;0.50;95.50;;;;;;5075014;28;20406;-80
2021/01/25 00:14:10;;;;;;;9.15;4.95;;;0.50;95.30;;;;;;5090937;27;20027;-79
2021/01/25 00:16:36;;;;;;;9.85;5.20;;;0.50;95.30;;;;;;5107359;28;20031;-80
2021/01/25 00:19:02;;;;;;;10.50;6.07;;;0.50;95.40;;;;;;5088910;28;20031;-79
2021/01/25 00:21:27;;;;;;;10.05;5.30;;;0.50;95.30;;;;;;5107279;28;20039;-80
2021/01/25 00:23:53;;;;;;;8.18;5.28;;;0.50;95.40;;;;;;5088105;27;20039;-80
2021/01/25 00:26:19;;;;;;;11.07;5.90;;;0.50;95.30;;;;;;5095975;28;20035;-80
2021/01/25 00:28:44;;;;;;;7.22;4.82;;;0.50;95.30;;;;;;5103679;28;20501;-79
2021/01/25 00:31:10;;;;;;;12.60;5.93;;;0.50;95.50;;;;;;5107046;28;20039;-80
2021/01/25 00:33:35;;;;;;;6.32;4.00;;;0.50;95.30;;;;;;5107496;28;20062;-80
2021/01/25 00:36:01;;;;;;;13.45;4.50;;;0.70;95.50;;;;;;5074277;27;20027;-80
2021/01/25 00:38:27;;;;;;;8.63;5.47;;;0.60;94.90;;;;;;5104405;28;20027;-80
2021/01/25 00:40:52;;;;;;;9.02;4.72;;;0.60;95.10;;;;;;5090481;28;20027;-81
2021/01/25 00:43:18;;;;;;;8.50;5.05;;;0.50;95.20;;;;;;5077385;28;20039;-81
2021/01/25 00:45:43;;;;;;;12.82;5.13;;;0.70;94.90;;;;;;5107761;28;20034;-81
2021/01/25 00:48:09;;;;;;;10.18;4.97;;;0.60;95.20;;;;;;5092096;27;20034;-80
2021/01/25 00:50:34;;;;;;;7.68;4.55;;;0.60;95.30;;;;;;5129456;27;20389;-81
2021/01/25 00:53:00;;;;;;;8.98;5.50;;;0.60;95.50;;;;;;5110940;27;20502;-80
2021/01/25 00:55:25;;;;;;;12.43;5.55;;;0.50;95.80;;;;;;5075318;27;22985;-80
2021/01/25 00:57:51;;;;;;;9.20;5.07;;;0.50;96.00;;;;;;5094218;27;20089;-79
2021/01/25 01:00:17;;;;;;;7.70;5.43;;;0.50;96.10;;;;;;5104625;27;20063;-79
2021/01/25 01:02:42;;;;;;;9.68;5.05;;;0.50;96.30;;;;;;5104540;27;20180;-79
2021/01/25 01:05:08;;;;;;;11.07;6.00;;;0.50;96.30;;;;;;5030511;27;20087;-80
2021/01/25 01:07:34;;;;;;;5.88;3.92;;;0.50;96.40;;;;;;5066568;27;20066;-80
2021/01/25 01:10:00;;;;;;;10.73;4.90;;;0.50;96.40;;;;;;5090863;27;20027;-81
2021/01/25 01:12:25;;;;;;;12.30;4.90;;;0.50;96.40;;;;;;5076419;27;20330;-80
2021/01/25 01:14:51;;;;;;;6.55;3.85;;;0.50;96.50;;;;;;5076076;27;20015;-81
2021/01/25 01:17:16;;;;;;;6.53;3.35;;;0.60;96.40;;;;;;5098822;27;20024;-80
2021/01/25 01:19:42;;;;;;;5.70;4.10;;;0.60;96.30;;;;;;5090253;27;20031;-81
2021/01/25 01:22:07;;;;;;;7.80;4.88;;;0.60;96.30;;;;;;5110046;27;20082;-81
2021/01/25 01:24:33;;;;;;;10.73;4.18;;;0.60;96.10;;;;;;5109225;27;20019;-81
2021/01/25 01:26:58;;;;;;;7.70;4.68;;;0.60;96.00;;;;;;5108603;27;20020;-81
2021/01/25 01:29:24;;;;;;;6.95;4.20;;;0.70;95.70;;;;;;5093393;27;20027;-80
2021/01/25 01:31:49;;;;;;;9.00;4.85;;;0.60;95.80;;;;;;5110094;27;20110;-79
2021/01/25 01:34:15;;;;;;;7.38;4.22;;;0.60;95.80;;;;;;5090996;27;20466;-81
2021/01/25 01:36:40;;;;;;;9.13;4.28;;;0.70;95.70;;;;;;5109882;27;20297;-81
2021/01/25 01:39:06;;;;;;;8.07;3.70;;;0.60;95.70;;;;;;5109747;27;20409;-81
2021/01/25 01:41:35;;;;;;;9.95;4.90;;;0.60;95.80;;;;;;5108531;27;20508;-81
2021/01/25 01:44:08;;;;;;;8.02;3.80;;;0.70;95.60;;;;;;5110512;27;20125;-80
2021/01/25 01:46:35;;;;;;;6.15;3.95;;;0.60;95.90;;;;;;5089861;27;20549;-81
2021/01/25 01:49:00;;;;;;;5.90;4.07;;;0.60;96.00;;;;;;5092315;27;20534;-81
2021/01/25 01:51:26;;;;;;;7.25;4.35;;;0.60;96.10;;;;;;5109508;27;20164;-80
2021/01/25 01:53:52;;;;;;;8.73;4.40;;;0.60;96.20;;;;;;5108197;27;20118;-81
2021/01/25 01:56:17;;;;;;;12.00;4.57;;;0.60;96.40;;;;;;5077375;27;20517;-81
2021/01/25 01:58:43;;;;;;;6.85;4.03;;;0.50;96.40;;;;;;5091533;28;20023;-81
2021/01/25 02:01:08;;;;;;;6.60;4.40;;;0.50;96.40;;;;;;5092171;27;20461;-80
2021/01/25 02:03:34;;;;;;;7.25;3.50;;;0.50;96.40;;;;;;5074368;27;20143;-80
2021/01/25 02:05:59;;;;;;;5.85;3.90;;;0.50;96.50;;;;;;5075689;27;20110;-80
2021/01/25 02:08:25;;;;;;;6.90;4.60;;;0.50;96.40;;;;;;5091066;27;20039;-80
2021/01/25 02:10:52;;;;;;;9.00;3.95;;;0.60;96.30;;;;;;5074454;27;20172;-80
2021/01/25 02:13:18;;;;;;;7.18;3.70;;;0.60;96.00;;;;;;5098224;27;20035;-80
2021/01/25 02:15:43;;;;;;;7.30;3.97;;;0.50;96.30;;;;;;5109041;27;20114;-80
2021/01/25 02:18:09;;;;;;;6.25;3.58;;;0.50;96.10;;;;;;5073759;27;20386;-81
2021/01/25 02:20:37;;;;;;;8.93;4.30;;;0.60;96.40;;;;;;5073353;27;20487;-82
2021/01/25 02:23:22;;;;;;;5.43;3.42;;;0.50;96.40;;;;;;5105773;27;20058;-80
2021/01/25 02:26:01;;;;;;;6.22;3.67;;;0.60;96.40;;;;;;5089368;27;20035;-81
2021/01/25 02:28:27;;;;;;;6.28;3.58;;;0.60;96.40;;;;;;5126437;27;20066;-81
2021/01/25 02:30:52;;;;;;;5.05;3.47;;;0.60;96.50;;;;;;5090262;27;20087;-81
2021/01/25 02:33:18;;;;;;;6.40;3.80;;;0.60;96.40;;;;;;5097234;27;20039;-81
2021/01/25 02:35:44;;;;;;;5.85;3.90;;;0.60;96.60;;;;;;5108454;27;20356;-81
2021/01/25 02:38:09;;;;;;;6.78;3.78;;;0.60;96.50;;;;;;5091188;27;20039;-81
2021/01/25 02:40:36;;;;;;;4.78;2.78;;;0.60;96.50;;;;;;5089229;27;20051;-79
2021/01/25 02:43:01;;;;;;;4.80;3.22;;;0.60;96.40;;;;;;5089546;27;20510;-80
2021/01/25 02:45:27;;;;;;;7.85;4.13;;;0.60;96.20;;;;;;5090366;27;20047;-81
2021/01/25 02:47:52;;;;;;;7.00;4.28;;;0.60;96.40;;;;;;5087619;27;20080;-80
2021/01/25 02:50:18;;;;;;;6.72;3.75;;;0.60;96.40;;;;;;5103247;27;20096;-80
2021/01/25 02:52:43;;;;;;;4.97;3.17;;;0.60;96.40;;;;;;5092463;27;20023;-80
2021/01/25 02:55:09;;;;;;;7.57;3.65;;;0.60;96.50;;;;;;5087827;27;20085;-80
2021/01/25 02:57:35;;;;;;;6.40;3.40;;;0.60;96.50;;;;;;5106916;27;20386;-80
2021/01/25 03:00:00;;;;;;;6.63;3.92;;;0.60;96.60;;;;;;5088417;27;20023;-80
2021/01/25 03:02:26;;;;;;;6.82;3.50;;;0.60;96.50;;;;;;5106967;27;20469;-80
2021/01/25 03:04:51;;;;;;;5.60;3.08;;;0.60;96.60;;;;;;5075392;27;20019;-81
2021/01/25 03:07:17;;;;;;;9.35;3.90;;;0.60;96.60;;;;;;5089286;27;20368;-80
2021/01/25 03:09:42;;;;;;;6.10;3.17;;;0.60;96.50;;;;;;5107870;27;20031;-80
2021/01/25 03:12:08;;;;;;;3.20;2.45;;;0.60;96.60;;;;;;5104145;27;20034;-81
2021/01/25 03:14:34;;;;;;;6.38;3.13;;;0.60;96.60;;;;;;5076070;27;20034;-79
2021/01/25 03:16:59;;;;;;;4.88;3.05;;;0.60;96.60;;;;;;5076571;27;20019;-80
2021/01/25 03:19:25;;;;;;;4.78;3.25;;;0.60;96.50;;;;;;5090212;27;20383;-82
2021/01/25 03:21:52;;;;;;;6.28;3.58;;;0.70;96.50;;;;;;5083133;27;20046;-82
2021/01/25 03:24:18;;;;;;;4.70;3.00;;;0.60;96.60;;;;;;5101232;27;20106;-81
2021/01/25 03:26:43;;;;;;;6.88;3.30;;;0.70;96.50;;;;;;5107444;27;20646;-81
2021/01/25 03:29:09;;;;;;;6.10;3.40;;;0.70;96.40;;;;;;5077380;27;20031;-81
2021/01/25 03:31:34;;;;;;;6.15;3.30;;;0.60;96.40;;;;;;5091218;27;20095;-81
2021/01/25 03:34:00;;;;;;;8.32;3.58;;;0.60;96.40;;;;;;5076015;27;20023;-82
2021/01/25 03:36:26;;;;;;;7.28;3.70;;;0.60;96.50;;;;;;5107341;27;20031;-81
2021/01/25 03:38:51;;;;;;;7.00;3.40;;;0.60;96.40;;;;;;5075630;27;20479;-82
2021/01/25 03:41:17;;;;;;;7.75;3.22;;;0.60;96.50;;;;;;5096616;27;20546;-82
2021/01/25 03:43:42;;;;;;;5.95;3.10;;;0.60;96.50;;;;;;5108281;27;20070;-81
2021/01/25 03:46:08;;;;;;;4.68;2.95;;;0.60;96.50;;;;;;5073939;27;20031;-81
2021/01/25 03:48:33;;;;;;;5.32;3.10;;;0.60;96.50;;;;;;5092212;27;20410;-82
2021/01/25 03:50:59;;;;;;;6.22;3.17;;;0.60;96.50;;;;;;5089994;28;20360;-81
2021/01/25 03:53:24;;;;;;;4.63;3.30;;;0.60;96.60;;;;;;5090739;28;20080;-80
2021/01/25 03:55:50;;;;;;;9.10;3.05;;;0.60;96.60;;;;;;5105910;28;20027;-79
2021/01/25 03:58:15;;;;;;;9.90;3.90;;;0.60;96.70;;;;;;5087819;28;20031;-80
2021/01/25 04:00:41;;;;;;;8.20;3.40;;;0.60;97.00;;;;;;5095029;28;20102;-80
2021/01/25 04:03:06;;;;;;;6.22;3.03;;;0.60;96.70;;;;;;5106998;27;20373;-79
2021/01/25 04:05:32;;;;;;;5.20;3.20;;;0.60;96.70;;;;;;5088451;28;20035;-81
2021/01/25 04:07:57;;;;;;;6.18;3.80;;;0.60;96.70;;;;;;5087871;28;20144;-80
2021/01/25 04:10:23;;;;;;;6.82;3.00;;;0.60;96.60;;;;;;5080298;28;20095;-80
2021/01/25 04:12:48;;;;;;;11.15;3.70;;;0.60;96.60;;;;;;5075255;28;20023;-80
2021/01/25 04:15:14;;;;;;;6.93;3.22;;;0.60;96.70;;;;;;5099210;28;20071;-80
2021/01/25 04:17:39;;;;;;;5.88;3.40;;;0.50;96.60;;;;;;5073291;28;20118;-80
2021/01/25 04:20:06;;;;;;;8.10;3.17;;;0.50;96.60;;;;;;5070932;28;20031;-79
2021/01/25 04:22:31;;;;;;;6.53;3.22;;;0.50;96.70;;;;;;5103257;27;20031;-80
2021/01/25 04:24:57;;;;;;;6.15;3.40;;;0.50;96.70;;;;;;5087839;27;20027;-79
2021/01/25 04:27:22;;;;;;;5.25;3.88;;;0.50;96.70;;;;;;5093697;27;20038;-80
2021/01/25 04:29:48;;;;;;;4.93;3.35;;;0.50;96.60;;;;;;5094807;27;20458;-81
2021/01/25 04:32:13;;;;;;;4.00;3.05;;;0.60;96.70;;;;;;5094270;27;20011;-80
2021/01/25 04:34:39;;;;;;;5.50;3.63;;;0.60;96.70;;;;;;5110948;27;20395;-80
2021/01/25 04:37:04;;;;;;;7.38;3.72;;;0.60;96.50;;;;;;5076297;27;20051;-81
2021/01/25 04:39:30;;;;;;;6.50;4.03;;;0.50;96.60;;;;;;5092524;27;20096;-81
2021/01/25 04:41:55;;;;;;;3.90;2.72;;;0.60;96.60;;;;;;5107994;27;20237;-80
2021/01/25 04:44:24;;;;;;;7.57;4.05;;;0.50;96.60;;;;;;5092458;27;20063;-80
2021/01/25 04:46:50;;;;;;;5.63;2.97;;;0.50;96.60;;;;;;5094143;27;20051;-79
2021/01/25 04:49:15;;;;;;;6.40;3.38;;;0.50;96.60;;;;;;5080418;27;20460;-81
2021/01/25 04:51:41;;;;;;;7.88;3.55;;;0.50;96.60;;;;;;5109379;27;20202;-80
2021/01/25 04:54:07;;;;;;;6.20;3.83;;;0.50;96.70;;;;;;5092985;27;20027;-80
2021/01/25 04:56:36;;;;;;;5.82;3.63;;;0.50;96.60;;;;;;5087108;27;20027;-80
2021/01/25 04:59:02;;;;;;;5.10;3.75;;;0.50;96.60;;;;;;5090938;27;20073;-80
2021/01/25 05:01:28;;;;;;;5.78;3.08;;;0.50;96.70;;;;;;5084910;27;20068;-79
2021/01/25 05:03:53;;;;;;;5.43;3.60;;;0.50;96.70;;;;;;5089817;27;20043;-79
2021/01/25 05:06:21;;;;;;;7.72;3.58;;;0.50;96.70;;;;;;5069471;27;20100;-80
2021/01/25 05:08:47;;;;;;;4.80;3.20;;;0.50;96.70;;;;;;5084642;27;20019;-80
2021/01/25 05:11:14;;;;;;;6.18;2.92;;;0.50;96.70;;;;;;5109212;27;20049;-79
2021/01/25 05:13:39;;;;;;;7.20;3.30;;;0.50;97.10;;;;;;5074821;27;20457;-80
2021/01/25 05:16:18;;;;;;;5.20;3.85;;;0.50;96.80;;;;;;5108042;27;20310;-80
2021/01/25 05:18:43;;;;;;;7.03;4.15;;;0.50;96.80;;;;;;5110208;27;20028;-80
2021/01/25 05:21:09;;;;;;;7.13;3.83;;;0.50;96.90;;;;;;5088412;27;20043;-80
2021/01/25 05:23:38;;;;;;;7.43;3.90;;;0.50;96.80;;;;;;5091460;27;20110;-81
2021/01/25 05:26:05;;;;;;;5.93;3.88;;;0.50;96.80;;;;;;5096963;27;20040;-79
2021/01/25 05:28:43;;;;;;;7.25;4.20;;;0.50;96.90;;;;;;5092379;27;20401;-79
2021/01/25 05:31:21;;;;;;;9.40;4.22;;;0.50;97.00;;;;;;5068137;27;20077;-79
2021/01/25 05:33:48;;;;;;;7.88;4.13;;;0.50;97.00;;;;;;5107436;28;20039;-80
2021/01/25 05:36:19;;;;;;;7.00;4.40;;;0.50;97.10;;;;;;5090074;27;20118;-81
2021/01/25 05:38:47;;;;;;;6.38;4.68;;;0.50;97.00;;;;;;5089066;27;20080;-80
2021/01/25 05:41:13;;;;;;;8.07;5.38;;;0.50;97.10;;;;;;5077708;27;20055;-80
2021/01/25 05:43:38;;;;;;;9.35;5.30;;;0.50;97.10;;;;;;5107143;27;20114;-81
2021/01/25 05:46:10;;;;;;;9.30;5.60;;;0.50;97.00;;;;;;5075581;27;20038;-80
2021/01/25 05:48:36;;;;;;;7.88;4.45;;;0.50;97.10;;;;;;4380615;27;9999918;-80
2021/01/25 05:51:15;;;;;;;8.95;5.35;;;0.50;97.10;;;;;;5087190;27;20035;-80
2021/01/25 05:53:41;;;;;;;10.77;5.60;;;0.50;97.10;;;;;;5101031;27;20061;-80
2021/01/25 05:56:08;;;;;;;10.77;5.20;;;0.50;97.10;;;;;;5071723;27;20043;-80
2021/01/25 05:58:34;;;;;;;8.85;5.38;;;0.50;97.10;;;;;;5088745;27;20126;-80
2021/01/25 06:01:00;;;;;;;10.23;4.95;;;0.50;97.20;;;;;;5089947;27;20114;-79
2021/01/25 06:03:26;;;;;;;9.95;6.00;;;0.50;97.20;;;;;;5106455;27;20035;-81
2021/01/25 06:05:51;;;;;;;9.38;6.15;;;0.50;97.20;;;;;;5105797;27;20375;-82
2021/01/25 06:08:38;;;;;;;12.55;6.43;;;0.40;97.20;;;;;;5071686;27;20049;-83
2021/01/25 06:11:08;;;;;;;9.73;6.15;;;0.60;97.30;;;;;;5106272;27;20537;-83
2021/01/25 06:13:39;;;;;;;11.20;6.50;;;0.60;97.30;;;;;;5092288;27;20172;-81
2021/01/25 06:16:06;;;;;;;14.30;6.78;;;0.60;97.20;;;;;;5092817;27;20087;-80
2021/01/25 06:18:31;;;;;;;14.20;6.30;;;0.60;97.20;;;;;;5090474;27;20620;-81
2021/01/25 06:20:57;;;;;;;9.43;5.85;;;0.60;97.30;;;;;;5109008;27;20118;-82
2021/01/25 06:23:23;;;;;;;13.88;7.47;;;0.60;97.50;;;;;;5092283;27;20119;-83
2021/01/25 06:25:49;;;;;;;13.20;6.95;;;0.60;97.20;;;;;;5092011;27;20080;-82
2021/01/25 06:28:15;;;;;;;9.95;5.82;;;0.60;97.20;;;;;;5075240;27;20035;-81
2021/01/25 06:30:44;;;;;;;13.93;7.60;;;0.50;97.20;;;;;;5092105;27;20058;-82
2021/01/25 06:33:16;;;;;;;14.40;6.45;;;0.60;97.20;;;;;;5074336;27;20032;-82
2021/01/25 06:35:41;;;;;;;16.73;8.02;;;0.60;97.20;;;;;;5075735;27;20110;-82
2021/01/25 06:38:13;;;;;;;12.07;7.50;;;0.60;97.30;;;;;;5086817;27;20505;-81
2021/01/25 06:40:41;;;;;;;5.82;3.97;;;0.50;97.40;;;;;;5093038;27;20106;-82
2021/01/25 06:43:07;;;;;;;15.65;7.53;;;0.50;97.50;;;;;;5076137;27;20547;-81
2021/01/25 06:45:33;;;;;;;14.85;9.65;;;0.60;97.30;;;;;;5097744;27;20121;-82
2021/01/25 06:47:59;;;;;;;16.75;8.13;;;0.60;97.30;;;;;;5109045;27;20466;-81
2021/01/25 06:50:24;;;;;;;16.38;8.73;;;0.60;97.20;;;;;;5092353;27;20031;-81
2021/01/25 06:52:50;;;;;;;13.68;9.07;;;0.60;97.30;;;;;;5089814;27;20200;-80
2021/01/25 06:55:16;;;;;;;16.60;8.82;;;0.60;97.30;;;;;;5088316;27;20035;-82
2021/01/25 06:57:42;;;;;;;12.68;8.27;;;0.60;97.30;;;;;;5088700;27;20497;-81
2021/01/25 07:00:12;;;;;;;13.88;8.45;;;0.60;97.40;;;;;;5084317;27;20030;-81
2021/01/25 07:02:58;;;;;;;17.45;10.10;;;0.60;97.40;;;;;;5087763;27;20027;-82
2021/01/25 07:05:32;;;;;;;17.83;9.85;;;0.60;97.40;;;;;;5083122;27;20099;-81
2021/01/25 07:08:25;;;;;;;16.95;8.93;;;0.60;97.40;;;;;;5087383;27;20047;-83
2021/01/25 07:11:01;;;;;;;21.30;10.23;;;0.60;97.40;;;;;;5108046;27;20150;-82
2021/01/25 07:13:29;;;;;;;19.52;10.43;;;0.60;97.40;;;;;;5090213;27;20023;-82
2021/01/25 07:15:55;;;;;;;18.92;10.38;;;0.60;97.40;;;;;;5087992;27;20116;-82
2021/01/25 07:18:24;;;;;;;24.00;10.70;;;0.60;97.40;;;;;;5088384;27;20465;-82
2021/01/25 07:20:51;;;;;;;17.70;9.45;;;0.60;97.30;;;;;;5086834;27;20035;-81
2021/01/25 07:23:19;;;;;;;17.98;10.55;;;0.60;97.30;;;;;;5075416;27;20023;-81
2021/01/25 07:25:55;;;;;;;19.85;11.15;;;0.60;97.30;;;;;;5090258;27;20110;-82
2021/01/25 07:28:22;;;;;;;22.80;10.70;;;0.60;97.30;;;;;;5074368;27;20454;-81
2021/01/25 07:30:48;;;;;;;18.10;10.57;;;0.60;97.30;;;;;;5090342;27;20435;-82
2021/01/25 07:33:13;;;;;;;18.23;11.35;;;0.60;97.30;;;;;;5089516;27;20032;-82
2021/01/25 07:35:40;;;;;;;22.80;12.23;;;0.60;97.30;;;;;;5089756;27;20521;-82
2021/01/25 07:38:05;;;;;;;22.23;10.98;;;0.60;97.30;;;;;;5073809;27;20038;-82
2021/01/25 07:40:31;;;;;;;20.02;11.27;;;0.60;97.30;;;;;;5106758;27;20039;-81
2021/01/25 07:42:56;;;;;;;17.33;10.82;;;0.60;97.30;;;;;;5075997;27;20486;-82
2021/01/25 07:45:22;;;;;;;18.95;10.55;;;0.60;97.30;;;;;;5084811;28;20040;-83
2021/01/25 07:47:48;;;;;;;18.10;9.90;;;0.60;97.30;;;;;;5087401;28;20029;-82
2021/01/25 07:50:14;;;;;;;19.08;8.85;;;0.60;97.40;;;;;;5073739;27;20429;-82
2021/01/25 07:52:40;;;;;;;9.48;6.43;;;0.70;97.40;;;;;;5081373;27;20114;-82
2021/01/25 07:55:12;;;;;;;11.70;6.30;;;0.70;97.30;;;;;;5087443;28;20157;-82
2021/01/25 07:57:38;;;;;;;18.23;10.18;;;0.70;97.30;;;;;;5088082;28;20055;-82
2021/01/25 08:00:17;;;;;;;10.70;6.78;;;0.70;97.30;;;;;;5074840;28;20057;-82
2021/01/25 08:02:45;;;;;;;12.73;8.30;;;0.70;97.40;;;;;;5104549;28;20055;-83
2021/01/25 08:05:11;;;;;;;17.20;10.60;;;0.70;97.40;;;;;;5075005;28;20106;-83
2021/01/25 08:07:38;;;;;;;13.90;7.65;;;0.70;97.30;;;;;;5090657;28;20020;-83
2021/01/25 08:10:04;;;;;;;18.02;11.02;;;0.70;97.30;;;;;;5071896;28;20490;-82
2021/01/25 08:12:30;;;;;;;21.65;11.15;;;0.70;97.20;;;;;;5091129;28;20015;-81
2021/01/25 08:15:00;;;;;;;20.05;10.75;;;0.70;97.20;;;;;;5087230;28;20050;-82
2021/01/25 08:17:47;;;;;;;21.88;11.52;;;0.70;97.20;;;;;;5087433;28;20020;-81
2021/01/25 08:20:17;;;;;;;10.95;6.13;;;0.70;97.20;;;;;;5107636;28;20042;-83
2021/01/25 08:22:52;;;;;;;25.23;11.93;;;0.70;97.30;;;;;;5107695;28;20030;-83
2021/01/25 08:25:19;;;;;;;12.23;6.82;;;0.60;97.20;;;;;;5090628;28;20031;-83
2021/01/25 08:28:02;;;;;;;23.23;13.23;;;0.70;97.40;;;;;;5073419;28;20038;-83
2021/01/25 08:30:41;;;;;;;22.70;11.70;;;0.70;97.10;;;;;;5102294;28;20055;-82
2021/01/25 08:33:09;;;;;;;11.32;6.47;;;0.70;97.30;;;;;;5068435;28;20043;-84
2021/01/25 08:35:55;;;;;;;9.85;6.35;;;0.80;97.40;;;;;;5089536;28;20032;-82
2021/01/25 08:38:30;;;;;;;21.23;12.07;;;0.70;97.40;;;;;;5087448;28;20035;-83
2021/01/25 08:41:00;;;;;;;17.80;10.60;;;0.70;97.30;;;;;;5102597;28;20031;-84
2021/01/25 08:43:29;;;;;;;24.20;13.95;;;0.70;97.40;;;;;;5084712;28;20024;-82
2021/01/25 08:46:07;;;;;;;27.45;13.60;;;0.70;97.40;;;;;;5076067;28;20035;-82
2021/01/25 08:48:33;;;;;;;27.40;13.88;;;0.70;97.40;;;;;;5074945;28;20490;-83
2021/01/25 08:51:10;;;;;;;22.15;13.50;;;0.80;97.40;;;;;;5081405;28;20062;-83
2021/01/25 08:53:35;;;;;;;24.33;14.07;;;0.70;97.40;;;;;;5087381;28;20035;-81
2021/01/25 08:56:14;;;;;;;23.80;13.00;;;0.80;97.60;;;;;;5106032;28;20023;-82
2021/01/25 08:58:40;;;;;;;27.67;15.00;;;0.80;97.70;;;;;;5085887;28;20070;-82
2021/01/25 09:01:18;;;;;;;29.20;15.07;;;0.80;97.60;;;;;;5088209;28;20061;-82
2021/01/25 09:03:44;;;;;;;28.70;15.60;;;0.80;97.60;;;;;;5087345;28;20023;-82
2021/01/25 09:06:10;;;;;;;26.92;13.57;;;0.80;97.60;;;;;;5088014;28;20456;-83
2021/01/25 09:08:36;;;;;;;17.67;11.05;;;0.90;97.60;;;;;;5091417;27;20612;-82
2021/01/25 09:11:01;;;;;;;22.15;11.70;;;0.90;97.70;;;;;;5087984;27;20110;-83
2021/01/25 09:13:27;;;;;;;26.40;14.63;;;1.00;97.80;;;;;;5076229;27;20095;-83
2021/01/25 09:15:52;;;;;;;20.33;10.82;;;1.00;97.60;;;;;;5108176;27;20537;-84
2021/01/25 09:18:18;;;;;;;24.13;12.95;;;1.00;97.60;;;;;;5094416;27;20059;-85
2021/01/25 09:20:43;;;;;;;26.08;13.48;;;1.00;97.40;;;;;;5088910;27;20040;-84
2021/01/25 09:23:09;;;;;;;23.35;14.02;;;0.90;97.50;;;;;;5090043;27;20036;-85
2021/01/25 09:25:34;;;;;;;25.17;14.02;;;1.00;97.50;;;;;;5111320;27;20735;-84
2021/01/25 09:28:00;;;;;;;26.75;13.45;;;1.00;97.50;;;;;;5091443;27;20141;-85
2021/01/25 09:30:28;;;;;;;26.02;14.07;;;1.00;97.60;;;;;;5092799;27;20063;-84
2021/01/25 09:32:54;;;;;;;25.23;14.45;;;1.00;98.00;;;;;;5106072;27;20550;-83
2021/01/25 09:35:21;;;;;;;28.05;14.07;;;1.10;97.80;;;;;;5077299;27;20114;-84
2021/01/25 09:37:46;;;;;;;27.85;13.95;;;1.10;97.70;;;;;;5093198;27;20085;-84
2021/01/25 09:40:13;;;;;;;22.40;11.55;;;1.10;97.70;;;;;;5092591;27;20212;-83
2021/01/25 09:42:39;;;;;;;24.63;13.68;;;1.20;97.90;;;;;;5099887;27;20050;-83
2021/01/25 09:45:06;;;;;;;23.45;13.10;;;1.20;97.80;;;;;;5109780;27;20475;-83
2021/01/25 09:47:31;;;;;;;22.00;12.20;;;1.30;98.00;;;;;;5075467;27;20080;-83
2021/01/25 09:49:57;;;;;;;19.48;12.05;;;1.40;98.10;;;;;;5088682;27;20027;-82
2021/01/25 09:52:23;;;;;;;20.63;12.98;;;1.50;98.30;;;;;;5092929;27;20898;-82
2021/01/25 09:54:49;;;;;;;24.75;13.88;;;1.50;97.80;;;;;;5077140;27;20024;-83
2021/01/25 09:57:15;;;;;;;23.67;12.13;;;1.40;97.70;;;;;;5101643;27;20487;-84
2021/01/25 09:59:40;;;;;;;20.08;13.05;;;1.30;97.70;;;;;;5078816;27;20035;-83
2021/01/25 10:02:06;;;;;;;23.27;12.10;;;1.30;97.50;;;;;;5092650;27;20023;-83
2021/01/25 10:04:31;;;;;;;18.70;12.02;;;1.20;97.60;;;;;;5076213;27;20490;-82
2021/01/25 10:07:04;;;;;;;26.13;13.23;;;1.20;97.90;;;;;;5080663;27;20098;-81
2021/01/25 10:09:30;;;;;;;24.48;13.70;;;1.20;97.90;;;;;;5100722;27;20531;-82
2021/01/25 10:11:56;;;;;;;21.17;10.75;;;1.30;98.20;;;;;;5106113;27;20035;-81
2021/01/25 10:14:22;;;;;;;22.90;13.23;;;1.60;98.80;;;;;;5092248;27;20046;-82
2021/01/25 10:16:47;;;;;;;24.17;13.75;;;1.50;98.20;;;;;;5074814;27;20027;-83
2021/01/25 10:19:13;;;;;;;26.40;14.65;;;1.40;97.80;;;;;;5090489;27;20047;-82
2021/01/25 10:21:38;;;;;;;20.27;11.32;;;1.40;97.70;;;;;;5108242;27;20043;-81
2021/01/25 10:24:04;;;;;;;23.75;14.80;;;1.50;98.50;;;;;;5108294;27;20036;-81
2021/01/25 10:26:30;;;;;;;25.13;13.50;;;1.50;98.30;;;;;;5108986;27;20494;-82
2021/01/25 10:28:55;;;;;;;21.95;12.18;;;1.50;98.00;;;;;;5082772;27;20032;-82
2021/01/25 10:31:27;;;;;;;20.77;11.45;;;1.60;98.20;;;;;;5088035;27;20027;-81
2021/01/25 10:33:53;;;;;;;21.48;13.13;;;1.90;98.40;;;;;;5107506;27;20117;-83
2021/01/25 10:36:18;;;;;;;24.52;12.25;;;1.70;97.80;;;;;;5091636;27;20055;-83
2021/01/25 10:38:45;;;;;;;20.88;12.23;;;1.60;98.00;;;;;;5118152;27;20068;-82
2021/01/25 10:41:12;;;;;;;18.77;11.05;;;1.70;98.50;;;;;;5091598;27;20054;-83
2021/01/25 10:43:39;;;;;;;20.52;12.30;;;1.80;98.40;;;;;;5094295;27;20031;-81
2021/01/25 10:46:04;;;;;;;24.13;15.00;;;1.80;98.30;;;;;;5095952;27;20532;-82
2021/01/25 10:48:30;;;;;;;24.98;14.13;;;1.90;98.40;;;;;;5099237;27;20031;-83
2021/01/25 10:50:55;;;;;;;23.65;13.93;;;1.80;98.30;;;;;;5110456;27;20043;-82
2021/01/25 10:53:21;;;;;;;21.00;12.95;;;1.80;98.40;;;;;;5098373;27;20054;-82
2021/01/25 10:55:46;;;;;;;21.67;14.00;;;2.00;99.00;;;;;;5109850;27;20050;-83
2021/01/25 10:58:13;;;;;;;18.55;11.77;;;2.00;98.40;;;;;;5073316;27;20077;-83
2021/01/25 11:00:38;;;;;;;20.77;11.90;;;2.00;98.70;;;;;;5092390;27;20542;-80
2021/01/25 11:03:04;;;;;;;21.33;11.65;;;2.00;98.50;;;;;;5088022;27;20027;-82
2021/01/25 11:05:29;;;;;;;16.30;10.65;;;1.90;98.40;;;;;;5087674;27;20028;-84
2021/01/25 11:07:55;;;;;;;21.10;11.35;;;2.30;99.50;;;;;;5088843;27;20490;-83
2021/01/25 11:10:25;;;;;;;21.05;11.93;;;2.60;99.70;;;;;;5090295;27;20039;-85
2021/01/25 11:12:50;;;;;;;18.38;11.52;;;2.50;98.80;;;;;;5105906;27;20024;-82
2021/01/25 11:15:16;;;;;;;16.65;11.27;;;2.30;98.60;;;;;;5107156;27;20078;-83
2021/01/25 11:17:42;;;;;;;20.85;11.95;;;2.20;98.60;;;;;;5092536;27;20312;-85
2021/01/25 11:20:08;;;;;;;20.50;12.52;;;2.20;98.50;;;;;;5106238;27;20039;-84
2021/01/25 11:22:33;;;;;;;18.05;11.00;;;2.20;98.80;;;;;;5088356;27;20128;-83
2021/01/25 11:24:59;;;;;;;19.20;12.40;;;2.20;99.00;;;;;;5106874;27;20095;-84
2021/01/25 11:27:25;;;;;;;17.77;11.57;;;2.30;98.90;;;;;;5093570;27;20071;-82
2021/01/25 11:29:50;;;;;;;16.33;11.27;;;2.30;98.90;;;;;;5110641;27;20507;-82
2021/01/25 11:32:16;;;;;;;17.08;10.40;;;2.30;98.90;;;;;;5085586;27;20031;-81
2021/01/25 11:34:41;;;;;;;19.17;11.80;;;2.30;99.00;;;;;;5091329;27;20406;-81
2021/01/25 11:37:07;;;;;;;16.25;11.13;;;2.30;98.90;;;;;;5080612;27;20077;-81
2021/01/25 11:39:32;;;;;;;19.08;11.27;;;2.30;98.90;;;;;;5089853;28;20035;-81
2021/01/25 11:41:58;;;;;;;16.70;11.40;;;2.40;99.10;;;;;;5074593;27;20023;-81
2021/01/25 11:44:25;;;;;;;19.55;12.10;;;2.70;99.40;;;;;;5088306;28;20486;-85
2021/01/25 11:46:50;;;;;;;18.52;11.45;;;3.10;99.60;;;;;;5075544;27;20140;-81
2021/01/25 11:49:16;;;;;;;22.75;14.60;;;3.40;99.70;;;;;;5081265;27;20039;-83
2021/01/25 11:51:43;;;;;;;16.20;10.20;;;3.60;99.60;;;;;;5107459;28;20031;-84
2021/01/25 11:54:09;;;;;;;18.27;10.10;;;3.60;99.60;;;;;;5108267;28;20057;-83
2021/01/25 11:56:34;;;;;;;26.27;14.57;;;3.60;99.50;;;;;;5074339;28;20104;-83
2021/01/25 11:59:00;;;;;;;22.77;12.88;;;3.60;99.40;;;;;;5089686;28;20035;-83
2021/01/25 12:01:25;;;;;;;23.77;13.90;;;3.70;99.90;;;;;;4739980;28;10000104;-81
2021/01/25 12:03:51;;;;;;;19.05;11.80;;;3.90;99.90;;;;;;5076451;28;20039;-83
2021/01/25 12:06:17;;;;;;;30.70;15.73;;;4.30;99.90;;;;;;5093509;28;20039;-82
2021/01/25 12:08:43;;;;;;;20.50;11.57;;;4.40;99.90;;;;;;5075541;28;20031;-83
2021/01/25 12:11:08;;;;;;;31.25;16.15;;;4.40;99.90;;;;;;5090156;28;20034;-84
2021/01/25 12:13:34;;;;;;;23.17;12.60;;;4.30;99.80;;;;;;5087612;28;20031;-83
2021/01/25 12:15:59;;;;;;;24.33;14.07;;;4.20;99.50;;;;;;5091780;28;20027;-84
2021/01/25 12:18:28;;;;;;;22.83;12.68;;;4.20;99.90;;;;;;5073666;28;20433;-84
2021/01/25 12:20:54;;;;;;;18.92;11.88;;;4.10;99.90;;;;;;5104937;28;20431;-84
2021/01/25 12:23:19;;;;;;;23.70;13.55;;;4.30;99.90;;;;;;5081444;28;20109;-85
2021/01/25 12:25:45;;;;;;;15.48;10.63;;;4.20;99.80;;;;;;5087777;28;20054;-84
2021/01/25 12:28:10;;;;;;;17.02;10.63;;;4.20;99.90;;;;;;5072865;28;20521;-83
2021/01/25 12:30:36;;;;;;;14.00;9.68;;;4.20;99.80;;;;;;5087992;28;20031;-84
2021/01/25 12:33:03;;;;;;;16.48;10.63;;;4.30;99.90;;;;;;5086078;28;20027;-85
2021/01/25 12:35:29;;;;;;;16.33;10.27;;;4.40;99.90;;;;;;5082401;28;20471;-85
2021/01/25 12:37:56;;;;;;;16.00;11.45;;;4.60;99.90;;;;;;5102467;28;20031;-85
2021/01/25 12:40:21;;;;;;;15.57;10.27;;;4.70;99.90;;;;;;5090465;28;20027;-83
2021/01/25 12:42:47;;;;;;;13.77;10.35;;;4.90;99.50;;;;;;5090211;28;20077;-85
2021/01/25 12:45:14;;;;;;;20.25;12.85;;;4.60;99.40;;;;;;5088555;28;20417;-85
2021/01/25 12:47:40;;;;;;;14.10;10.60;;;4.70;99.70;;;;;;5093418;27;20027;-85